sensor_id;sensor_type;location;lat;lon;timestamp;temperature;humidity
45729;DHT22;31439;53.512;10.206;2023-04-03T00:01:29;2.50;99.90
45729;DHT22;31439;53.512;10.206;2023-04-03T00:03:55;2.60;99.90
45729;DHT22;31439;53.512;10.206;2023-04-03T00:06:22;2.90;99.90
45729;DHT22;31439;53.512;10.206;2023-04-03T00:08:48;2.90;99.90
45729;DHT22;31439;53.512;10.206;2023-04-03T00:11:15;2.80;99.90
45729;DHT22;31439;53.512;10.206;2023-04-03T00:13:42;2.90;99.90
45729;DHT22;31439;53.512;10.206;2023-04-03T00:16:09;2.80;99.90
45729;DHT22;31439;53.512;10.206;2023-04-03T00:18:41;2.70;99.90
45729;DHT22;31439;53.512;10.206;2023-04-03T00:21:10;2.60;99.90
45729;DHT22;31439;53.512;10.206;2023-04-03T00:23:37;2.60;99.90
45729;DHT22;31439;53.512;10.206;2023-04-03T00:26:06;2.60;99.90
45729;DHT22;31439;53.512;10.206;2023-04-03T00:28:36;2.40;99.90
45729;DHT22;31439;53.512;10.206;2023-04-03T00:31:02;2.40;99.90
45729;DHT22;31439;53.512;10.206;2023-04-03T00:33:29;2.30;99.90
45729;DHT22;31439;53.512;10.206;2023-04-03T00:35:57;2.20;99.90
45729;DHT22;31439;53.512;10.206;2023-04-03T00:38:24;2.20;99.90
45729;DHT22;31439;53.512;10.206;2023-04-03T00:40:51;2.00;99.90
45729;DHT22;31439;53.512;10.206;2023-04-03T00:43:37;2.10;99.90
45729;DHT22;31439;53.512;10.206;2023-04-03T00:46:04;2.10;99.90
45729;DHT22;31439;53.512;10.206;2023-04-03T00:48:43;2.00;99.90
45729;DHT22;31439;53.512;10.206;2023-04-03T00:51:25;1.80;99.90
45729;DHT22;31439;53.512;10.206;2023-04-03T00:54:08;1.70;99.90
45729;DHT22;31439;53.512;10.206;2023-04-03T00:56:42;1.80;99.90
45729;DHT22;31439;53.512;10.206;2023-04-03T00:59:16;1.80;99.90
45729;DHT22;31439;53.512;10.206;2023-04-03T01:01:45;1.80;99.90
45729;DHT22;31439;53.512;10.206;2023-04-03T01:04:32;1.80;99.90
45729;DHT22;31439;53.512;10.206;2023-04-03T01:07:04;1.80;99.90
45729;DHT22;31439;53.512;10.206;2023-04-03T01:09:32;1.60;99.90
45729;DHT22;31439;53.512;10.206;2023-04-03T01:12:19;1.80;99.90
45729;DHT22;31439;53.512;10.206;2023-04-03T01:14:51;1.70;99.90
45729;DHT22;31439;53.512;10.206;2023-04-03T01:17:41;1.70;99.90
45729;DHT22;31439;53.512;10.206;2023-04-03T01:23:16;1.70;99.90
45729;DHT22;31439;53.512;10.206;2023-04-03T01:25:52;1.70;99.90
45729;DHT22;31439;53.512;10.206;2023-04-03T01:28:27;1.50;99.90
45729;DHT22;31439;53.512;10.206;2023-04-03T01:31:03;1.50;99.90
45729;DHT22;31439;53.512;10.206;2023-04-03T01:33:33;1.30;99.90
45729;DHT22;31439;53.512;10.206;2023-04-03T01:36:02;1.50;99.90
45729;DHT22;31439;53.512;10.206;2023-04-03T01:38:30;1.30;99.90
45729;DHT22;31439;53.512;10.206;2023-04-03T01:41:00;1.40;99.90
45729;DHT22;31439;53.512;10.206;2023-04-03T01:43:26;1.30;99.90
45729;DHT22;31439;53.512;10.206;2023-04-03T01:45:53;1.30;99.90
45729;DHT22;31439;53.512;10.206;2023-04-03T01:48:23;1.30;99.90
45729;DHT22;31439;53.512;10.206;2023-04-03T01:50:50;1.50;99.90
45729;DHT22;31439;53.512;10.206;2023-04-03T01:53:25;1.30;99.90
45729;DHT22;31439;53.512;10.206;2023-04-03T01:56:00;1.30;99.90
45729;DHT22;31439;53.512;10.206;2023-04-03T01:58:26;1.30;99.90
45729;DHT22;31439;53.512;10.206;2023-04-03T02:00:52;1.50;99.90
45729;DHT22;31439;53.512;10.206;2023-04-03T02:03:19;1.40;99.90
45729;DHT22;31439;53.512;10.206;2023-04-03T02:05:45;1.30;99.90
45729;DHT22;31439;53.512;10.206;2023-04-03T02:08:11;1.40;99.90
45729;DHT22;31439;53.512;10.206;2023-04-03T02:10:49;1.40;99.90
45729;DHT22;31439;53.512;10.206;2023-04-03T02:13:18;1.50;99.90
45729;DHT22;31439;53.512;10.206;2023-04-03T02:15:50;1.60;99.90
45729;DHT22;31439;53.512;10.206;2023-04-03T02:18:22;1.60;99.90
45729;DHT22;31439;53.512;10.206;2023-04-03T02:20:48;1.50;99.90
45729;DHT22;31439;53.512;10.206;2023-04-03T02:23:23;1.60;99.90
45729;DHT22;31439;53.512;10.206;2023-04-03T02:25:52;1.50;99.90
45729;DHT22;31439;53.512;10.206;2023-04-03T02:28:21;1.60;99.90
45729;DHT22;31439;53.512;10.206;2023-04-03T02:30:50;1.60;99.90
45729;DHT22;31439;53.512;10.206;2023-04-03T02:33:19;1.70;99.90
45729;DHT22;31439;53.512;10.206;2023-04-03T02:35:55;1.70;99.90
45729;DHT22;31439;53.512;10.206;2023-04-03T02:38:22;1.60;99.90
45729;DHT22;31439;53.512;10.206;2023-04-03T02:40:50;1.60;99.90
45729;DHT22;31439;53.512;10.206;2023-04-03T02:43:17;1.70;99.90
45729;DHT22;31439;53.512;10.206;2023-04-03T02:45:45;1.70;99.90
45729;DHT22;31439;53.512;10.206;2023-04-03T02:48:11;1.60;99.90
45729;DHT22;31439;53.512;10.206;2023-04-03T02:50:40;1.60;99.90
45729;DHT22;31439;53.512;10.206;2023-04-03T02:53:07;2.10;99.90
45729;DHT22;31439;53.512;10.206;2023-04-03T02:55:34;1.40;99.90
45729;DHT22;31439;53.512;10.206;2023-04-03T02:58:04;1.70;99.90
45729;DHT22;31439;53.512;10.206;2023-04-03T03:00:39;1.50;99.90
45729;DHT22;31439;53.512;10.206;2023-04-03T03:03:11;1.40;99.90
45729;DHT22;31439;53.512;10.206;2023-04-03T03:05:49;1.60;99.90
45729;DHT22;31439;53.512;10.206;2023-04-03T03:08:18;1.60;99.90
45729;DHT22;31439;53.512;10.206;2023-04-03T03:10:48;1.40;99.90
45729;DHT22;31439;53.512;10.206;2023-04-03T03:13:18;1.20;99.90
45729;DHT22;31439;53.512;10.206;2023-04-03T03:15:44;1.30;99.90
45729;DHT22;31439;53.512;10.206;2023-04-03T03:18:18;1.20;99.90
45729;DHT22;31439;53.512;10.206;2023-04-03T03:20:54;1.10;99.90
45729;DHT22;31439;53.512;10.206;2023-04-03T03:23:36;1.00;99.90
45729;DHT22;31439;53.512;10.206;2023-04-03T03:26:15;1.10;99.90
45729;DHT22;31439;53.512;10.206;2023-04-03T03:28:57;0.90;99.90
45729;DHT22;31439;53.512;10.206;2023-04-03T03:31:26;0.90;99.90
45729;DHT22;31439;53.512;10.206;2023-04-03T03:34:14;0.80;99.90
45729;DHT22;31439;53.512;10.206;2023-04-03T03:36:49;0.90;99.90
45729;DHT22;31439;53.512;10.206;2023-04-03T03:39:27;0.70;99.90
45729;DHT22;31439;53.512;10.206;2023-04-03T03:41:59;0.70;99.90
45729;DHT22;31439;53.512;10.206;2023-04-03T03:44:32;0.70;99.90
45729;DHT22;31439;53.512;10.206;2023-04-03T03:49:29;0.70;99.90
45729;DHT22;31439;53.512;10.206;2023-04-03T03:51:55;1.00;99.90
45729;DHT22;31439;53.512;10.206;2023-04-03T03:54:21;0.70;99.90
45729;DHT22;31439;53.512;10.206;2023-04-03T03:56:47;0.90;99.90
45729;DHT22;31439;53.512;10.206;2023-04-03T03:59:13;0.80;99.90
45729;DHT22;31439;53.512;10.206;2023-04-03T04:01:39;0.70;99.90
45729;DHT22;31439;53.512;10.206;2023-04-03T04:04:05;0.70;99.90
45729;DHT22;31439;53.512;10.206;2023-04-03T04:06:31;0.70;99.90
45729;DHT22;31439;53.512;10.206;2023-04-03T04:08:57;0.70;99.90
45729;DHT22;31439;53.512;10.206;2023-04-03T04:11:23;0.70;99.90
45729;DHT22;31439;53.512;10.206;2023-04-03T04:13:49;0.60;99.90
45729;DHT22;31439;53.512;10.206;2023-04-03T04:16:15;0.60;99.90
45729;DHT22;31439;53.512;10.206;2023-04-03T04:18:41;0.60;99.90
45729;DHT22;31439;53.512;10.206;2023-04-03T04:21:07;0.60;99.90
45729;DHT22;31439;53.512;10.206;2023-04-03T04:23:33;0.60;99.90
45729;DHT22;31439;53.512;10.206;2023-04-03T04:25:59;0.70;99.90
45729;DHT22;31439;53.512;10.206;2023-04-03T04:28:24;0.50;99.90
45729;DHT22;31439;53.512;10.206;2023-04-03T04:30:50;0.50;99.90
45729;DHT22;31439;53.512;10.206;2023-04-03T04:33:16;0.60;99.90
45729;DHT22;31439;53.512;10.206;2023-04-03T04:35:43;0.50;99.90
45729;DHT22;31439;53.512;10.206;2023-04-03T04:38:09;0.50;99.90
45729;DHT22;31439;53.512;10.206;2023-04-03T04:40:35;0.50;99.90
45729;DHT22;31439;53.512;10.206;2023-04-03T04:43:01;0.60;99.90
45729;DHT22;31439;53.512;10.206;2023-04-03T04:45:26;0.60;99.90
45729;DHT22;31439;53.512;10.206;2023-04-03T04:47:55;0.60;99.90
45729;DHT22;31439;53.512;10.206;2023-04-03T04:50:21;0.60;99.90
45729;DHT22;31439;53.512;10.206;2023-04-03T04:52:47;1.60;99.90
45729;DHT22;31439;53.512;10.206;2023-04-03T04:55:13;0.50;99.90
45729;DHT22;31439;53.512;10.206;2023-04-03T04:57:39;0.40;99.90
45729;DHT22;31439;53.512;10.206;2023-04-03T05:00:06;0.40;99.90
45729;DHT22;31439;53.512;10.206;2023-04-03T05:02:32;0.40;99.90
45729;DHT22;31439;53.512;10.206;2023-04-03T05:04:57;0.40;99.90
45729;DHT22;31439;53.512;10.206;2023-04-03T05:07:24;0.90;99.90
45729;DHT22;31439;53.512;10.206;2023-04-03T05:09:49;0.30;99.90
45729;DHT22;31439;53.512;10.206;2023-04-03T05:12:18;0.40;99.90
45729;DHT22;31439;53.512;10.206;2023-04-03T05:14:49;0.60;99.90
45729;DHT22;31439;53.512;10.206;2023-04-03T05:17:15;0.50;99.90
45729;DHT22;31439;53.512;10.206;2023-04-03T05:19:41;0.50;99.90
45729;DHT22;31439;53.512;10.206;2023-04-03T05:22:07;0.60;99.90
45729;DHT22;31439;53.512;10.206;2023-04-03T05:24:35;0.50;99.90
45729;DHT22;31439;53.512;10.206;2023-04-03T05:27:01;0.50;99.90
45729;DHT22;31439;53.512;10.206;2023-04-03T05:29:27;0.50;99.90
45729;DHT22;31439;53.512;10.206;2023-04-03T05:31:52;0.60;99.90
45729;DHT22;31439;53.512;10.206;2023-04-03T05:34:20;0.70;99.90
45729;DHT22;31439;53.512;10.206;2023-04-03T05:36:46;0.80;99.90
45729;DHT22;31439;53.512;10.206;2023-04-03T05:39:12;0.70;99.90
45729;DHT22;31439;53.512;10.206;2023-04-03T05:41:38;0.80;99.90
45729;DHT22;31439;53.512;10.206;2023-04-03T05:44:04;0.80;99.90
45729;DHT22;31439;53.512;10.206;2023-04-03T05:46:34;0.80;99.90
45729;DHT22;31439;53.512;10.206;2023-04-03T05:49:00;0.90;99.90
45729;DHT22;31439;53.512;10.206;2023-04-03T05:51:33;0.90;99.90
45729;DHT22;31439;53.512;10.206;2023-04-03T05:54:13;1.00;99.90
45729;DHT22;31439;53.512;10.206;2023-04-03T05:56:41;1.40;99.90
45729;DHT22;31439;53.512;10.206;2023-04-03T05:59:07;1.10;99.90
45729;DHT22;31439;53.512;10.206;2023-04-03T06:01:34;1.40;99.90
45729;DHT22;31439;53.512;10.206;2023-04-03T06:04:03;1.50;99.90
45729;DHT22;31439;53.512;10.206;2023-04-03T06:06:51;1.40;99.90
45729;DHT22;31439;53.512;10.206;2023-04-03T06:09:19;1.50;99.90
45729;DHT22;31439;53.512;10.206;2023-04-03T06:11:45;1.60;99.90
45729;DHT22;31439;53.512;10.206;2023-04-03T06:14:14;1.70;99.90
45729;DHT22;31439;53.512;10.206;2023-04-03T06:16:40;1.80;99.90
45729;DHT22;31439;53.512;10.206;2023-04-03T06:19:10;1.90;99.90
45729;DHT22;31439;53.512;10.206;2023-04-03T06:21:36;2.00;99.90
45729;DHT22;31439;53.512;10.206;2023-04-03T06:24:03;2.10;99.90
45729;DHT22;31439;53.512;10.206;2023-04-03T06:26:30;2.20;99.90
45729;DHT22;31439;53.512;10.206;2023-04-03T06:28:56;2.30;99.90
45729;DHT22;31439;53.512;10.206;2023-04-03T06:31:25;2.40;99.90
45729;DHT22;31439;53.512;10.206;2023-04-03T06:33:51;2.60;99.90
45729;DHT22;31439;53.512;10.206;2023-04-03T06:36:19;2.60;99.90
45729;DHT22;31439;53.512;10.206;2023-04-03T06:38:48;2.60;99.90
45729;DHT22;31439;53.512;10.206;2023-04-03T06:41:15;2.70;99.90
45729;DHT22;31439;53.512;10.206;2023-04-03T06:43:46;2.80;99.90
45729;DHT22;31439;53.512;10.206;2023-04-03T06:46:15;2.90;99.90
45729;DHT22;31439;53.512;10.206;2023-04-03T06:48:42;2.80;99.90
45729;DHT22;31439;53.512;10.206;2023-04-03T06:51:19;3.10;99.90
45729;DHT22;31439;53.512;10.206;2023-04-03T06:53:47;3.30;99.90
45729;DHT22;31439;53.512;10.206;2023-04-03T06:56:13;3.40;99.90
45729;DHT22;31439;53.512;10.206;2023-04-03T06:58:40;3.60;99.90
45729;DHT22;31439;53.512;10.206;2023-04-03T07:01:12;3.70;99.90
45729;DHT22;31439;53.512;10.206;2023-04-03T07:03:41;3.70;99.90
45729;DHT22;31439;53.512;10.206;2023-04-03T07:06:11;3.90;99.90
45729;DHT22;31439;53.512;10.206;2023-04-03T07:08:38;4.00;99.90
45729;DHT22;31439;53.512;10.206;2023-04-03T07:11:07;4.00;99.90
45729;DHT22;31439;53.512;10.206;2023-04-03T07:13:41;4.00;99.90
45729;DHT22;31439;53.512;10.206;2023-04-03T07:16:13;4.00;99.90
45729;DHT22;31439;53.512;10.206;2023-04-03T07:18:39;4.10;99.90
45729;DHT22;31439;53.512;10.206;2023-04-03T07:21:07;4.20;99.90
45729;DHT22;31439;53.512;10.206;2023-04-03T07:23:33;4.20;99.90
45729;DHT22;31439;53.512;10.206;2023-04-03T07:26:08;4.30;99.90
45729;DHT22;31439;53.512;10.206;2023-04-03T07:28:34;4.30;99.90
45729;DHT22;31439;53.512;10.206;2023-04-03T07:31:06;4.80;99.90
45729;DHT22;31439;53.512;10.206;2023-04-03T07:33:34;5.50;99.90
45729;DHT22;31439;53.512;10.206;2023-04-03T07:36:04;5.80;99.90
45729;DHT22;31439;53.512;10.206;2023-04-03T07:38:32;5.30;99.90
45729;DHT22;31439;53.512;10.206;2023-04-03T07:41:05;5.10;99.90
45729;DHT22;31439;53.512;10.206;2023-04-03T07:43:35;4.90;99.90
45729;DHT22;31439;53.512;10.206;2023-04-03T07:46:09;4.80;99.90
45729;DHT22;31439;53.512;10.206;2023-04-03T07:48:38;4.70;99.90
45729;DHT22;31439;53.512;10.206;2023-04-03T07:51:05;4.80;99.90
45729;DHT22;31439;53.512;10.206;2023-04-03T07:53:31;4.90;99.90
45729;DHT22;31439;53.512;10.206;2023-04-03T07:56:01;4.90;99.90
45729;DHT22;31439;53.512;10.206;2023-04-03T07:58:30;4.90;99.90
45729;DHT22;31439;53.512;10.206;2023-04-03T08:00:59;5.00;99.90
45729;DHT22;31439;53.512;10.206;2023-04-03T08:03:26;5.10;99.90
45729;DHT22;31439;53.512;10.206;2023-04-03T08:05:52;5.10;99.90
45729;DHT22;31439;53.512;10.206;2023-04-03T08:08:21;5.00;99.90
45729;DHT22;31439;53.512;10.206;2023-04-03T08:10:51;5.10;99.90
45729;DHT22;31439;53.512;10.206;2023-04-03T08:13:21;5.20;99.90
45729;DHT22;31439;53.512;10.206;2023-04-03T08:15:47;5.20;99.90
45729;DHT22;31439;53.512;10.206;2023-04-03T08:18:20;5.20;99.90
45729;DHT22;31439;53.512;10.206;2023-04-03T08:20:52;5.30;99.90
45729;DHT22;31439;53.512;10.206;2023-04-03T08:23:18;5.40;99.90
45729;DHT22;31439;53.512;10.206;2023-04-03T08:25:44;5.50;99.90
45729;DHT22;31439;53.512;10.206;2023-04-03T08:28:13;5.50;99.90
45729;DHT22;31439;53.512;10.206;2023-04-03T08:30:41;5.50;99.90
45729;DHT22;31439;53.512;10.206;2023-04-03T08:33:08;5.50;99.90
45729;DHT22;31439;53.512;10.206;2023-04-03T08:35:38;5.60;99.90
45729;DHT22;31439;53.512;10.206;2023-04-03T08:38:04;5.70;99.90
45729;DHT22;31439;53.512;10.206;2023-04-03T08:40:33;5.60;99.90
45729;DHT22;31439;53.512;10.206;2023-04-03T08:43:34;5.60;99.90
45729;DHT22;31439;53.512;10.206;2023-04-03T08:46:05;5.80;99.90
45729;DHT22;31439;53.512;10.206;2023-04-03T08:48:52;5.90;99.90
45729;DHT22;31439;53.512;10.206;2023-04-03T08:51:26;5.90;99.90
45729;DHT22;31439;53.512;10.206;2023-04-03T08:54:02;6.00;99.90
45729;DHT22;31439;53.512;10.206;2023-04-03T08:56:31;6.10;99.90
45729;DHT22;31439;53.512;10.206;2023-04-03T08:59:05;6.20;99.90
45729;DHT22;31439;53.512;10.206;2023-04-03T09:01:36;6.20;99.90
45729;DHT22;31439;53.512;10.206;2023-04-03T09:04:12;6.30;99.90
45729;DHT22;31439;53.512;10.206;2023-04-03T09:06:39;6.30;99.90
45729;DHT22;31439;53.512;10.206;2023-04-03T09:12:18;6.40;99.90
45729;DHT22;31439;53.512;10.206;2023-04-03T09:20:46;6.70;99.90
45729;DHT22;31439;53.512;10.206;2023-04-03T09:23:36;6.70;99.90
45729;DHT22;31439;53.512;10.206;2023-04-03T09:26:16;6.80;99.90
45729;DHT22;31439;53.512;10.206;2023-04-03T09:28:45;6.80;99.90
45729;DHT22;31439;53.512;10.206;2023-04-03T09:31:42;6.90;99.90
45729;DHT22;31439;53.512;10.206;2023-04-03T09:34:43;6.80;99.90
45729;DHT22;31439;53.512;10.206;2023-04-03T09:37:44;6.90;99.90
45729;DHT22;31439;53.512;10.206;2023-04-03T09:41:23;6.90;99.90
45729;DHT22;31439;53.512;10.206;2023-04-03T09:45:56;6.80;99.90
45729;DHT22;31439;53.512;10.206;2023-04-03T09:48:50;6.80;99.90
45729;DHT22;31439;53.512;10.206;2023-04-03T09:51:16;7.00;99.90
45729;DHT22;31439;53.512;10.206;2023-04-03T09:53:43;7.00;99.90
45729;DHT22;31439;53.512;10.206;2023-04-03T09:58:46;7.20;99.90
45729;DHT22;31439;53.512;10.206;2023-04-03T10:01:36;7.20;99.90
45729;DHT22;31439;53.512;10.206;2023-04-03T10:04:16;7.20;99.90
45729;DHT22;31439;53.512;10.206;2023-04-03T10:12:11;7.50;99.90
45729;DHT22;31439;53.512;10.206;2023-04-03T10:14:55;7.60;99.90
45729;DHT22;31439;53.512;10.206;2023-04-03T10:20:46;8.00;99.90
45729;DHT22;31439;53.512;10.206;2023-04-03T10:36:35;7.70;99.90
45729;DHT22;31439;53.512;10.206;2023-04-03T10:39:33;7.60;99.90
45729;DHT22;31439;53.512;10.206;2023-04-03T10:42:50;7.70;99.90
45729;DHT22;31439;53.512;10.206;2023-04-03T10:50:36;7.90;99.90
45729;DHT22;31439;53.512;10.206;2023-04-03T10:53:24;8.10;99.90
45729;DHT22;31439;53.512;10.206;2023-04-03T10:58:35;8.10;99.90
45729;DHT22;31439;53.512;10.206;2023-04-03T11:01:07;8.10;99.90
45729;DHT22;31439;53.512;10.206;2023-04-03T11:03:41;8.10;99.90
45729;DHT22;31439;53.512;10.206;2023-04-03T11:06:11;8.40;99.90
45729;DHT22;31439;53.512;10.206;2023-04-03T11:11:13;9.10;99.90
45729;DHT22;31439;53.512;10.206;2023-04-03T11:13:50;9.30;99.90
45729;DHT22;31439;53.512;10.206;2023-04-03T11:16:23;9.30;99.90
45729;DHT22;31439;53.512;10.206;2023-04-03T11:19:13;9.00;99.90
45729;DHT22;31439;53.512;10.206;2023-04-03T11:21:44;8.90;99.90
45729;DHT22;31439;53.512;10.206;2023-04-03T11:24:25;8.70;99.90
45729;DHT22;31439;53.512;10.206;2023-04-03T11:26:54;8.80;99.90
45729;DHT22;31439;53.512;10.206;2023-04-03T11:29:34;8.80;99.90
45729;DHT22;31439;53.512;10.206;2023-04-03T11:32:05;9.10;99.90
45729;DHT22;31439;53.512;10.206;2023-04-03T11:34:37;8.60;99.90
45729;DHT22;31439;53.512;10.206;2023-04-03T11:40:00;8.50;99.90
45729;DHT22;31439;53.512;10.206;2023-04-03T11:42:38;8.60;99.90
45729;DHT22;31439;53.512;10.206;2023-04-03T11:47:46;9.10;99.90
45729;DHT22;31439;53.512;10.206;2023-04-03T12:16:05;8.90;98.90
45729;DHT22;31439;53.512;10.206;2023-04-03T12:21:17;8.60;99.90
45729;DHT22;31439;53.512;10.206;2023-04-03T12:26:40;9.10;99.90
45729;DHT22;31439;53.512;10.206;2023-04-03T12:37:20;10.60;98.00
45729;DHT22;31439;53.512;10.206;2023-04-03T12:39:59;11.10;94.90
45729;DHT22;31439;53.512;10.206;2023-04-03T12:45:18;11.20;92.10
45729;DHT22;31439;53.512;10.206;2023-04-03T12:47:45;11.60;91.00
45729;DHT22;31439;53.512;10.206;2023-04-03T12:50:20;11.80;91.10
45729;DHT22;31439;53.512;10.206;2023-04-03T12:53:20;12.20;90.40
45729;DHT22;31439;53.512;10.206;2023-04-03T12:56:26;12.50;90.90
45729;DHT22;31439;53.512;10.206;2023-04-03T12:58:54;11.90;84.00
45729;DHT22;31439;53.512;10.206;2023-04-03T13:01:25;10.70;87.30
45729;DHT22;31439;53.512;10.206;2023-04-03T13:03:56;10.00;89.60
45729;DHT22;31439;53.512;10.206;2023-04-03T13:06:29;9.40;91.60
45729;DHT22;31439;53.512;10.206;2023-04-03T13:09:00;9.50;93.00
45729;DHT22;31439;53.512;10.206;2023-04-03T13:11:36;9.90;92.40
45729;DHT22;31439;53.512;10.206;2023-04-03T13:14:12;10.30;92.10
45729;DHT22;31439;53.512;10.206;2023-04-03T13:16:39;11.00;91.00
45729;DHT22;31439;53.512;10.206;2023-04-03T13:19:17;11.10;90.40
45729;DHT22;31439;53.512;10.206;2023-04-03T13:21:43;11.60;92.20
45729;DHT22;31439;53.512;10.206;2023-04-03T13:24:12;11.10;85.70
45729;DHT22;31439;53.512;10.206;2023-04-03T13:26:38;10.60;83.70
45729;DHT22;31439;53.512;10.206;2023-04-03T13:29:20;10.20;85.20
45729;DHT22;31439;53.512;10.206;2023-04-03T13:31:46;10.20;85.30
45729;DHT22;31439;53.512;10.206;2023-04-03T13:34:16;9.80;85.30
45729;DHT22;31439;53.512;10.206;2023-04-03T13:36:44;9.90;84.50
45729;DHT22;31439;53.512;10.206;2023-04-03T13:41:45;9.90;87.80
45729;DHT22;31439;53.512;10.206;2023-04-03T13:44:33;9.90;87.50
45729;DHT22;31439;53.512;10.206;2023-04-03T13:50:13;10.20;88.00
45729;DHT22;31439;53.512;10.206;2023-04-03T13:52:54;10.20;88.60
45729;DHT22;31439;53.512;10.206;2023-04-03T13:55:26;10.10;86.20
45729;DHT22;31439;53.512;10.206;2023-04-03T13:58:02;10.00;87.50
45729;DHT22;31439;53.512;10.206;2023-04-03T14:03:14;10.60;85.20
45729;DHT22;31439;53.512;10.206;2023-04-03T14:05:39;10.50;83.20
45729;DHT22;31439;53.512;10.206;2023-04-03T14:08:05;10.50;81.20
45729;DHT22;31439;53.512;10.206;2023-04-03T14:10:35;10.30;81.00
45729;DHT22;31439;53.512;10.206;2023-04-03T14:13:01;10.60;81.20
45729;DHT22;31439;53.512;10.206;2023-04-03T14:15:30;10.50;79.80
45729;DHT22;31439;53.512;10.206;2023-04-03T14:17:57;10.50;80.60
45729;DHT22;31439;53.512;10.206;2023-04-03T14:20:25;10.30;81.00
45729;DHT22;31439;53.512;10.206;2023-04-03T14:22:52;10.70;84.00
45729;DHT22;31439;53.512;10.206;2023-04-03T14:25:20;10.50;79.50
45729;DHT22;31439;53.512;10.206;2023-04-03T14:27:49;10.50;76.50
45729;DHT22;31439;53.512;10.206;2023-04-03T14:30:27;10.50;77.90
45729;DHT22;31439;53.512;10.206;2023-04-03T14:32:55;10.50;82.30
45729;DHT22;31439;53.512;10.206;2023-04-03T14:35:22;10.60;83.30
45729;DHT22;31439;53.512;10.206;2023-04-03T14:37:48;10.80;82.80
45729;DHT22;31439;53.512;10.206;2023-04-03T14:40:22;10.90;80.70
45729;DHT22;31439;53.512;10.206;2023-04-03T14:42:48;11.20;82.50
45729;DHT22;31439;53.512;10.206;2023-04-03T14:45:15;11.20;81.10
45729;DHT22;31439;53.512;10.206;2023-04-03T14:47:46;11.30;79.10
45729;DHT22;31439;53.512;10.206;2023-04-03T14:50:19;11.40;79.40
45729;DHT22;31439;53.512;10.206;2023-04-03T14:52:47;10.90;78.20
45729;DHT22;31439;53.512;10.206;2023-04-03T14:55:15;10.70;79.50
45729;DHT22;31439;53.512;10.206;2023-04-03T14:57:41;10.80;76.20
45729;DHT22;31439;53.512;10.206;2023-04-03T15:00:13;10.60;75.40
45729;DHT22;31439;53.512;10.206;2023-04-03T15:02:39;10.50;76.10
45729;DHT22;31439;53.512;10.206;2023-04-03T15:05:08;10.50;76.10
45729;DHT22;31439;53.512;10.206;2023-04-03T15:07:54;10.70;75.70
45729;DHT22;31439;53.512;10.206;2023-04-03T15:10:24;10.90;76.10
45729;DHT22;31439;53.512;10.206;2023-04-03T15:12:50;11.00;75.50
45729;DHT22;31439;53.512;10.206;2023-04-03T15:15:21;11.20;75.20
45729;DHT22;31439;53.512;10.206;2023-04-03T15:17:51;11.40;74.60
45729;DHT22;31439;53.512;10.206;2023-04-03T15:20:21;11.30;73.50
45729;DHT22;31439;53.512;10.206;2023-04-03T15:23:05;11.60;71.70
45729;DHT22;31439;53.512;10.206;2023-04-03T15:25:32;11.50;73.90
45729;DHT22;31439;53.512;10.206;2023-04-03T15:27:58;11.60;75.80
45729;DHT22;31439;53.512;10.206;2023-04-03T15:30:27;11.80;75.10
45729;DHT22;31439;53.512;10.206;2023-04-03T15:32:56;11.50;74.10
45729;DHT22;31439;53.512;10.206;2023-04-03T15:35:22;11.50;75.00
45729;DHT22;31439;53.512;10.206;2023-04-03T15:37:48;11.50;76.70
45729;DHT22;31439;53.512;10.206;2023-04-03T15:40:17;11.40;75.80
45729;DHT22;31439;53.512;10.206;2023-04-03T15:42:43;11.60;74.40
45729;DHT22;31439;53.512;10.206;2023-04-03T15:45:20;11.80;75.10
45729;DHT22;31439;53.512;10.206;2023-04-03T15:47:55;12.10;75.10
45729;DHT22;31439;53.512;10.206;2023-04-03T15:50:21;12.50;72.80
45729;DHT22;31439;53.512;10.206;2023-04-03T15:52:49;12.50;71.50
45729;DHT22;31439;53.512;10.206;2023-04-03T15:55:30;12.40;71.60
45729;DHT22;31439;53.512;10.206;2023-04-03T15:57:56;12.20;72.50
45729;DHT22;31439;53.512;10.206;2023-04-03T16:00:25;12.60;73.10
45729;DHT22;31439;53.512;10.206;2023-04-03T16:03:11;13.30;70.20
45729;DHT22;31439;53.512;10.206;2023-04-03T16:05:38;13.10;69.10
45729;DHT22;31439;53.512;10.206;2023-04-03T16:08:05;13.00;71.60
45729;DHT22;31439;53.512;10.206;2023-04-03T16:10:40;13.00;72.30
45729;DHT22;31439;53.512;10.206;2023-04-03T16:26:42;14.10;67.10
45729;DHT22;31439;53.512;10.206;2023-04-03T16:29:08;14.80;99.90
45729;DHT22;31439;53.512;10.206;2023-04-03T16:31:33;15.60;89.00
45729;DHT22;31439;53.512;10.206;2023-04-03T16:34:00;15.00;75.90
45729;DHT22;31439;53.512;10.206;2023-04-03T16:36:25;14.40;73.50
45729;DHT22;31439;53.512;10.206;2023-04-03T16:38:51;14.00;75.20
45729;DHT22;31439;53.512;10.206;2023-04-03T16:41:17;13.60;77.40
45729;DHT22;31439;53.512;10.206;2023-04-03T16:43:43;13.40;75.80
45729;DHT22;31439;53.512;10.206;2023-04-03T16:46:08;13.30;75.60
45729;DHT22;31439;53.512;10.206;2023-04-03T16:48:34;13.10;77.20
45729;DHT22;31439;53.512;10.206;2023-04-03T16:51:00;13.00;78.50
45729;DHT22;31439;53.512;10.206;2023-04-03T16:53:26;13.10;78.10
45729;DHT22;31439;53.512;10.206;2023-04-03T16:55:57;12.90;77.70
45729;DHT22;31439;53.512;10.206;2023-04-03T16:58:24;12.00;80.30
45729;DHT22;31439;53.512;10.206;2023-04-03T17:00:52;11.20;86.10
45729;DHT22;31439;53.512;10.206;2023-04-03T17:03:22;10.60;88.90
45729;DHT22;31439;53.512;10.206;2023-04-03T17:05:50;10.40;91.80
45729;DHT22;31439;53.512;10.206;2023-04-03T17:08:17;10.00;91.50
45729;DHT22;31439;53.512;10.206;2023-04-03T17:10:43;9.70;92.60
45729;DHT22;31439;53.512;10.206;2023-04-03T17:13:09;9.10;93.00
45729;DHT22;31439;53.512;10.206;2023-04-03T17:15:35;8.80;94.10
45729;DHT22;31439;53.512;10.206;2023-04-03T17:18:01;8.40;95.10
45729;DHT22;31439;53.512;10.206;2023-04-03T17:20:27;8.30;96.10
45729;DHT22;31439;53.512;10.206;2023-04-03T17:22:52;8.40;96.60
45729;DHT22;31439;53.512;10.206;2023-04-03T17:25:19;8.30;96.80
45729;DHT22;31439;53.512;10.206;2023-04-03T17:27:44;8.20;97.00
45729;DHT22;31439;53.512;10.206;2023-04-03T17:30:10;8.00;98.20
45729;DHT22;31439;53.512;10.206;2023-04-03T17:32:36;7.80;99.60
45729;DHT22;31439;53.512;10.206;2023-04-03T17:35:03;7.80;99.90
45729;DHT22;31439;53.512;10.206;2023-04-03T17:37:28;7.60;99.90
45729;DHT22;31439;53.512;10.206;2023-04-03T17:39:54;7.50;99.90
45729;DHT22;31439;53.512;10.206;2023-04-03T17:42:20;7.30;99.90
45729;DHT22;31439;53.512;10.206;2023-04-03T17:44:45;7.20;99.90
45729;DHT22;31439;53.512;10.206;2023-04-03T17:47:11;7.10;99.90
45729;DHT22;31439;53.512;10.206;2023-04-03T17:49:37;7.00;99.90
45729;DHT22;31439;53.512;10.206;2023-04-03T17:52:02;7.20;99.90